Time;durP1;ratioP1;P1;durP2;ratioP2;P2;SDS_P1;SDS_P2;PMS_P1;PMS_P2;Temp;Humidity;BMP_temperature;BMP_pressure;BME280_temperature;BME280_humidity;BME280_pressure;Samples;Min_cycle;Max_cycle;Signal;HPM_P1;HPM_P2
2022/06/28 00:01:44;;;;;;;5.28;1.70;;;;;;;10.75;100.00;102166.19;5051546;28;20033;-76
2022/06/28 00:04:11;;;;;;;5.25;1.70;;;;;;;10.72;100.00;102161.06;5051822;28;20366;-77
2022/06/28 00:06:37;;;;;;;5.93;2.15;;;;;;;10.71;100.00;102164.69;5051505;28;20048;-77
2022/06/28 00:09:02;;;;;;;7.35;2.22;;;;;;;10.71;100.00;102156.69;5051220;28;20025;-76
2022/06/28 00:11:28;;;;;;;9.20;1.85;;;;;;;10.73;100.00;102159.25;5051601;28;20392;-76
2022/06/28 00:13:53;;;;;;;4.43;1.58;;;;;;;10.80;100.00;102157.88;5050052;28;20061;-76
2022/06/28 00:16:19;;;;;;;8.30;1.50;;;;;;;10.81;100.00;102153.38;5051595;28;20116;-76
2022/06/28 00:18:45;;;;;;;10.77;2.03;;;;;;;10.84;100.00;102150.50;5051155;28;20059;-76
2022/06/28 00:21:11;;;;;;;7.80;1.45;;;;;;;10.85;100.00;102146.88;5051611;28;20479;-77
2022/06/28 00:23:38;;;;;;;7.85;1.63;;;;;;;10.84;100.00;102153.16;5051033;28;20033;-77
2022/06/28 00:26:07;;;;;;;5.80;1.50;;;;;;;10.81;100.00;102156.91;5051366;28;20061;-77
2022/06/28 00:28:33;;;;;;;4.82;1.60;;;;;;;10.80;100.00;102149.88;5033791;28;20029;-77
2022/06/28 00:30:58;;;;;;;7.55;1.60;;;;;;;10.79;100.00;102144.66;5051698;28;20036;-78
2022/06/28 00:33:24;;;;;;;7.63;1.70;;;;;;;10.76;100.00;102153.72;5051551;28;20025;-77
2022/06/28 00:35:49;;;;;;;10.65;1.73;;;;;;;10.72;100.00;102146.91;5051285;28;20389;-77
2022/06/28 00:38:16;;;;;;;4.25;1.20;;;;;;;10.67;100.00;102146.38;5051852;28;20086;-77
2022/06/28 00:40:45;;;;;;;3.40;0.95;;;;;;;10.63;100.00;102161.72;5055249;28;20061;-76
2022/06/28 00:43:11;;;;;;;5.97;1.48;;;;;;;10.59;100.00;102150.41;5055251;28;20078;-77
2022/06/28 00:45:37;;;;;;;12.15;1.77;;;;;;;10.62;100.00;102157.34;5055411;28;20061;-77
2022/06/28 00:48:03;;;;;;;10.13;1.63;;;;;;;10.61;100.00;102160.13;5067222;28;20029;-75
2022/06/28 00:50:33;;;;;;;3.15;1.38;;;;;;;10.63;100.00;102159.06;5057457;28;20123;-77
2022/06/28 00:53:08;;;;;;;8.38;1.55;;;;;;;10.63;100.00;102158.19;5055810;28;20544;-76
2022/06/28 00:55:34;;;;;;;8.73;1.45;;;;;;;10.64;100.00;102152.75;5055711;28;20025;-76
2022/06/28 00:58:00;;;;;;;8.10;1.60;;;;;;;10.59;100.00;102157.56;5055272;28;20592;-76
2022/06/28 01:00:27;;;;;;;6.15;1.42;;;;;;;10.54;100.00;102160.53;5055120;28;20041;-81
2022/06/28 01:02:53;;;;;;;8.95;2.17;;;;;;;10.55;100.00;102162.25;5053968;28;20123;-76
2022/06/28 01:05:19;;;;;;;9.38;1.95;;;;;;;10.53;100.00;102158.00;5054747;28;20499;-76
2022/06/28 01:07:44;;;;;;;5.97;1.52;;;;;;;10.53;100.00;102158.84;5054359;28;20090;-77
2022/06/28 01:10:10;;;;;;;12.25;2.03;;;;;;;10.51;100.00;102159.88;5054602;28;20041;-77
2022/06/28 01:12:35;;;;;;;5.85;1.45;;;;;;;10.53;100.00;102160.66;5054983;28;20358;-77
2022/06/28 01:15:01;;;;;;;8.05;2.10;;;;;;;10.54;100.00;102165.03;5054735;28;20029;-76
2022/06/28 01:17:26;;;;;;;9.82;1.65;;;;;;;10.54;100.00;102160.53;5054529;28;20418;-77
2022/06/28 01:19:52;;;;;;;13.27;2.33;;;;;;;10.54;100.00;102157.88;5054578;28;20033;-77
2022/06/28 01:22:17;;;;;;;7.80;1.73;;;;;;;10.54;100.00;102157.88;5054553;28;20032;-77
2022/06/28 01:24:43;;;;;;;4.03;1.50;;;;;;;10.51;100.00;102160.75;5054814;28;20029;-77
2022/06/28 01:27:09;;;;;;;8.88;1.65;;;;;;;10.49;100.00;102157.34;5054266;28;20104;-77
2022/06/28 01:29:34;;;;;;;12.05;1.88;;;;;;;10.50;100.00;102156.38;5054507;28;20183;-77
2022/06/28 01:32:00;;;;;;;9.07;1.40;;;;;;;10.51;100.00;102168.75;5053901;28;20497;-76
2022/06/28 01:34:25;;;;;;;7.20;1.33;;;;;;;10.52;100.00;102165.09;5054292;28;20036;-76
2022/06/28 01:36:51;;;;;;;7.88;1.55;;;;;;;10.58;100.00;102170.03;5054163;28;20087;-77
2022/06/28 01:39:16;;;;;;;5.18;1.42;;;;;;;10.57;100.00;102173.63;5053695;28;20055;-77
2022/06/28 01:41:43;;;;;;;7.47;1.45;;;;;;;10.57;100.00;102164.81;5054418;28;20458;-77
2022/06/28 01:44:09;;;;;;;7.25;1.40;;;;;;;10.55;100.00;102164.91;5053636;28;20087;-77
2022/06/28 01:46:37;;;;;;;4.65;1.35;;;;;;;10.56;100.00;102169.25;5053527;28;20029;-78
2022/06/28 01:49:06;;;;;;;12.63;1.35;;;;;;;10.61;100.00;102174.25;5053957;28;20078;-77
2022/06/28 01:51:32;;;;;;;12.65;2.08;;;;;;;10.64;100.00;102173.22;5052522;28;20032;-77
2022/06/28 01:53:57;;;;;;;6.65;1.70;;;;;;;10.68;100.00;102177.38;5053496;28;20415;-77
2022/06/28 01:56:24;;;;;;;7.47;1.70;;;;;;;10.65;100.00;102175.75;5053956;28;20079;-76
2022/06/28 01:58:49;;;;;;;4.30;1.20;;;;;;;10.66;100.00;102179.25;5053636;28;20037;-76
2022/06/28 02:01:15;;;;;;;6.60;1.38;;;;;;;10.67;100.00;102183.63;5053108;28;20367;-76
2022/06/28 02:03:43;;;;;;;9.18;1.50;;;;;;;10.68;100.00;102188.00;5053017;28;20036;-77
2022/06/28 02:06:09;;;;;;;5.43;1.20;;;;;;;10.62;100.00;102189.28;5053755;28;20056;-76
2022/06/28 02:08:35;;;;;;;6.43;1.48;;;;;;;10.58;100.00;102187.78;5053457;28;20076;-81
2022/06/28 02:11:02;;;;;;;9.68;1.70;;;;;;;10.56;100.00;102187.06;5053076;28;20041;-77
2022/06/28 02:13:28;;;;;;;6.28;1.55;;;;;;;10.51;100.00;102187.38;5053069;28;20041;-76
2022/06/28 02:15:53;;;;;;;6.93;1.92;;;;;;;10.49;100.00;102189.28;5051566;28;20094;-76
2022/06/28 02:18:18;;;;;;;8.07;1.75;;;;;;;10.51;100.00;102189.16;5053527;28;20029;-76
2022/06/28 02:20:44;;;;;;;7.70;1.60;;;;;;;10.51;100.00;102187.38;5053332;28;20040;-77
2022/06/28 02:23:09;;;;;;;7.13;1.50;;;;;;;10.51;100.00;102181.19;5052944;28;20044;-76
2022/06/28 02:25:35;;;;;;;5.68;1.42;;;;;;;10.56;100.00;102179.06;5052841;28;20025;-76
2022/06/28 02:28:00;;;;;;;12.00;1.90;;;;;;;10.58;100.00;102182.47;5052577;28;20142;-76
2022/06/28 02:30:26;;;;;;;9.30;2.13;;;;;;;10.60;100.00;102191.22;5052845;28;20473;-76
2022/06/28 02:32:51;;;;;;;12.93;1.70;;;;;;;10.61;100.00;102192.06;5052955;28;20330;-75
2022/06/28 02:40:44;;;;;;;6.03;1.25;;;;;;;10.73;100.00;102188.53;5051188;28;20083;-76
2022/06/28 02:43:09;;;;;;;6.60;1.40;;;;;;;10.70;100.00;102194.94;5050896;28;20045;-76
2022/06/28 02:45:39;;;;;;;8.25;1.77;;;;;;;10.67;100.00;102189.81;5053356;28;20091;-76
2022/06/28 02:48:05;;;;;;;6.97;1.50;;;;;;;10.61;100.00;102195.56;5052988;28;20029;-76
2022/06/28 02:50:31;;;;;;;11.75;1.55;;;;;;;10.61;100.00;102198.22;5051093;28;20060;-76
2022/06/28 02:52:57;;;;;;;6.65;1.45;;;;;;;10.57;100.00;102194.09;5052473;28;20105;-77
2022/06/28 02:55:22;;;;;;;6.18;1.80;;;;;;;10.52;100.00;102189.06;5052415;28;20440;-77
2022/06/28 02:57:48;;;;;;;4.72;1.52;;;;;;;10.47;100.00;102196.53;5053246;28;20433;-77
2022/06/28 03:00:17;;;;;;;9.18;2.40;;;;;;;10.38;100.00;102195.34;5052457;28;20098;-76
2022/06/28 03:02:44;;;;;;;8.25;1.83;;;;;;;10.34;100.00;102200.97;5052240;28;20124;-81
2022/06/28 03:05:13;;;;;;;5.68;1.67;;;;;;;10.30;100.00;102200.31;5052372;28;20384;-76
2022/06/28 03:07:39;;;;;;;7.97;1.75;;;;;;;10.29;100.00;102197.75;5052234;28;20111;-76
2022/06/28 03:10:06;;;;;;;7.15;1.50;;;;;;;10.28;100.00;102202.19;5052000;28;20429;-76
2022/06/28 03:12:31;;;;;;;5.53;1.40;;;;;;;10.26;100.00;102200.63;5052775;28;20079;-76
2022/06/28 03:14:56;;;;;;;13.32;1.88;;;;;;;10.23;100.00;102205.19;5050596;28;20056;-76
2022/06/28 03:17:22;;;;;;;14.77;2.22;;;;;;;10.19;100.00;102205.50;5052396;28;20033;-76
2022/06/28 03:19:47;;;;;;;5.05;1.65;;;;;;;10.15;100.00;102211.97;5051726;28;20390;-77
2022/06/28 03:22:13;;;;;;;7.97;2.03;;;;;;;10.14;100.00;102216.44;5051599;28;20020;-76
2022/06/28 03:24:38;;;;;;;11.93;2.10;;;;;;;10.11;100.00;102215.81;5051741;28;20398;-76
2022/06/28 03:27:04;;;;;;;10.27;1.95;;;;;;;10.12;100.00;102218.38;5052078;28;20029;-76
2022/06/28 03:29:29;;;;;;;18.25;2.17;;;;;;;10.20;100.00;102224.00;5050154;28;20052;-76
2022/06/28 03:31:55;;;;;;;9.55;1.90;;;;;;;10.19;100.00;102222.28;5051572;28;20032;-77
2022/06/28 03:34:20;;;;;;;11.45;2.15;;;;;;;10.23;100.00;102226.47;5051711;28;20135;-77
2022/06/28 03:36:46;;;;;;;10.98;2.17;;;;;;;10.25;100.00;102231.66;5050220;28;20044;-76
2022/06/28 03:39:12;;;;;;;10.45;1.92;;;;;;;10.27;100.00;102239.53;5051257;28;20053;-76
2022/06/28 03:41:38;;;;;;;14.77;2.30;;;;;;;10.25;100.00;102237.00;5050280;28;20342;-76
2022/06/28 03:44:03;;;;;;;10.18;2.20;;;;;;;10.24;100.00;102228.16;5051352;28;20037;-76
2022/06/28 03:46:29;;;;;;;9.27;1.98;;;;;;;10.26;100.00;102235.22;5052145;28;20060;-76
2022/06/28 03:48:54;;;;;;;10.13;2.45;;;;;;;10.27;100.00;102240.41;5051584;28;20053;-77
2022/06/28 03:51:19;;;;;;;12.85;2.45;;;;;;;10.30;100.00;102240.22;5051661;28;20108;-76
2022/06/28 03:53:45;;;;;;;10.07;2.20;;;;;;;10.34;100.00;102243.53;5051758;28;20163;-76
2022/06/28 03:56:10;;;;;;;9.57;2.00;;;;;;;10.31;100.00;102247.22;5051568;28;20072;-76
2022/06/28 03:58:36;;;;;;;11.93;2.13;;;;;;;10.31;100.00;102243.72;5051472;28;20037;-76
2022/06/28 04:01:02;;;;;;;12.88;2.42;;;;;;;10.34;100.00;102248.84;5051555;28;20029;-76
2022/06/28 04:03:28;;;;;;;10.38;2.75;;;;;;;10.38;100.00;102253.88;5051520;28;20029;-76
2022/06/28 04:05:53;;;;;;;9.43;2.47;;;;;;;10.44;100.00;102254.44;5051919;28;20353;-77
2022/06/28 04:08:18;;;;;;;13.82;2.88;;;;;;;10.47;100.00;102255.06;5051470;28;20178;-76
2022/06/28 04:10:44;;;;;;;17.63;3.30;;;;;;;10.54;100.00;102256.34;5050245;28;20044;-76
2022/06/28 04:13:10;;;;;;;11.98;2.85;;;;;;;10.62;100.00;102262.97;5051780;28;20025;-76
2022/06/28 04:15:37;;;;;;;20.35;2.97;;;;;;;10.66;100.00;102261.78;5055279;28;20039;-76
2022/06/28 04:18:03;;;;;;;18.92;3.15;;;;;;;10.69;100.00;102259.78;5055317;28;20388;-76
2022/06/28 04:20:29;;;;;;;13.20;2.83;;;;;;;10.71;100.00;102262.34;5055449;28;20112;-76
2022/06/28 04:22:54;;;;;;;13.07;3.05;;;;;;;10.73;100.00;102260.41;5055181;28;20044;-77
2022/06/28 04:25:19;;;;;;;19.73;2.80;;;;;;;10.77;100.00;102269.91;5055238;28;20037;-76
2022/06/28 04:27:45;;;;;;;11.75;2.97;;;;;;;10.79;100.00;102262.66;5055314;28;20036;-75
2022/06/28 04:30:11;;;;;;;11.15;2.67;;;;;;;10.86;100.00;102263.94;5054883;28;20041;-76
2022/06/28 04:32:36;;;;;;;23.63;3.58;;;;;;;10.90;100.00;102262.78;5055118;28;20469;-76
2022/06/28 04:35:02;;;;;;;25.40;3.45;;;;;;;10.97;100.00;102268.50;5055066;28;20041;-76
2022/06/28 04:37:28;;;;;;;17.55;3.33;;;;;;;11.00;100.00;102264.78;5055159;28;20044;-76
2022/06/28 04:39:53;;;;;;;24.52;4.05;;;;;;;11.07;100.00;102258.91;5055403;28;20045;-76
2022/06/28 04:42:19;;;;;;;17.83;3.22;;;;;;;11.13;100.00;102262.97;5055009;28;20116;-76
2022/06/28 04:44:44;;;;;;;19.42;3.20;;;;;;;11.22;100.00;102269.47;5054707;28;20410;-75
2022/06/28 04:47:10;;;;;;;20.48;3.38;;;;;;;11.29;100.00;102263.59;5053672;28;20025;-76
2022/06/28 04:49:36;;;;;;;14.73;3.45;;;;;;;11.33;100.00;102266.91;5054729;28;20033;-76
2022/06/28 04:52:02;;;;;;;16.45;3.70;;;;;;;11.37;100.00;102270.19;5054335;28;20025;-76
2022/06/28 04:54:28;;;;;;;10.18;2.67;;;;;;;11.40;100.00;102268.16;5037602;28;20423;-76
2022/06/28 04:56:54;;;;;;;17.33;3.13;;;;;;;11.42;100.00;102276.91;5055443;28;20147;-76
2022/06/28 04:59:19;;;;;;;12.32;3.00;;;;;;;11.46;100.00;102264.19;5056106;28;20037;-75
2022/06/28 05:01:45;;;;;;;20.52;4.07;;;;;;;11.51;100.00;102270.06;5055046;28;20039;-76
2022/06/28 05:04:10;;;;;;;21.42;3.50;;;;;;;11.52;100.00;102269.06;5055462;28;20040;-76
2022/06/28 05:06:35;;;;;;;18.55;4.00;;;;;;;11.56;100.00;102269.72;5053959;28;20037;-76
2022/06/28 05:09:01;;;;;;;12.88;3.90;;;;;;;11.58;100.00;102273.97;5055148;28;20040;-79
2022/06/28 05:11:26;;;;;;;16.40;3.97;;;;;;;11.63;100.00;102266.50;5055463;28;20029;-77
2022/06/28 05:13:52;;;;;;;20.00;4.15;;;;;;;11.68;100.00;102266.16;5053891;28;20063;-76
2022/06/28 05:16:17;;;;;;;16.92;4.78;;;;;;;11.74;100.00;102268.38;5055101;28;20025;-76
2022/06/28 05:18:42;;;;;;;19.80;4.10;;;;;;;11.81;100.00;102266.13;5054247;28;20424;-75
2022/06/28 05:21:08;;;;;;;17.23;3.78;;;;;;;11.86;100.00;102271.97;5054728;28;20025;-75
2022/06/28 05:23:33;;;;;;;19.20;5.05;;;;;;;11.90;100.00;102269.94;5055102;28;20039;-75
2022/06/28 05:25:59;;;;;;;17.00;4.00;;;;;;;11.96;100.00;102267.69;5053179;28;20029;-77
2022/06/28 05:28:24;;;;;;;22.38;4.28;;;;;;;12.01;100.00;102278.03;5054522;28;20337;-76
2022/06/28 05:30:49;;;;;;;21.55;4.32;;;;;;;12.09;100.00;102272.97;5054580;28;20482;-76
2022/06/28 05:33:15;;;;;;;15.20;4.32;;;;;;;12.18;100.00;102274.09;5054552;28;20139;-76
2022/06/28 05:35:41;;;;;;;19.80;4.72;;;;;;;12.25;100.00;102271.81;5054361;28;20091;-75
2022/06/28 05:38:07;;;;;;;22.70;3.95;;;;;;;12.32;100.00;102271.25;5053957;28;20041;-75
2022/06/28 05:40:33;;;;;;;16.02;4.10;;;;;;;12.43;100.00;102274.94;5053859;28;20442;-77
2022/06/28 05:42:58;;;;;;;21.40;4.15;;;;;;;12.51;100.00;102270.72;5054414;28;20029;-77
2022/06/28 05:45:23;;;;;;;22.70;4.57;;;;;;;12.62;100.00;102269.88;5054494;28;20041;-75
2022/06/28 05:47:49;;;;;;;18.77;3.85;;;;;;;12.77;100.00;102270.53;5053754;28;20386;-76
2022/06/28 05:50:14;;;;;;;16.25;3.85;;;;;;;13.00;100.00;102270.56;5054942;28;20070;-77
2022/06/28 05:52:40;;;;;;;18.70;3.97;;;;;;;13.22;100.00;102265.22;5054469;28;20035;-76
2022/06/28 05:55:05;;;;;;;21.65;4.00;;;;;;;13.41;100.00;102258.44;5053547;28;20029;-77
2022/06/28 05:57:31;;;;;;;18.40;3.95;;;;;;;13.57;100.00;102263.41;5054131;28;20094;-76
2022/06/28 05:59:56;;;;;;;18.02;3.70;;;;;;;13.72;100.00;102256.81;5054210;28;20132;-77
2022/06/28 06:02:21;;;;;;;19.25;4.20;;;;;;;13.89;100.00;102255.41;5054564;28;20036;-77
2022/06/28 06:04:48;;;;;;;14.80;3.75;;;;;;;14.04;100.00;102260.50;5053785;28;20036;-76
2022/06/28 06:07:13;;;;;;;16.27;3.80;;;;;;;14.18;100.00;102251.31;5053491;28;20420;-76
2022/06/28 06:09:42;;;;;;;21.98;4.35;;;;;;;14.29;100.00;102259.28;5053717;28;20049;-76
2022/06/28 06:12:08;;;;;;;16.60;3.75;;;;;;;14.48;100.00;102252.38;5054476;28;20544;-77
2022/06/28 06:14:33;;;;;;;19.08;3.83;;;;;;;14.69;100.00;102257.75;5053793;28;20063;-76
2022/06/28 06:16:58;;;;;;;13.45;2.80;;;;;;;14.84;100.00;102263.63;5054100;28;20025;-76
2022/06/28 06:19:24;;;;;;;17.23;2.83;;;;;;;15.03;100.00;102258.34;5054209;28;20118;-75
2022/06/28 06:21:49;;;;;;;18.02;4.00;;;;;;;15.14;100.00;102263.66;5052864;28;20461;-76
2022/06/28 06:24:15;;;;;;;18.90;3.58;;;;;;;15.25;98.92;102261.84;5054304;28;20039;-76
2022/06/28 06:26:41;;;;;;;19.73;3.58;;;;;;;15.39;99.30;102260.63;5053847;28;20033;-76
2022/06/28 06:29:06;;;;;;;23.55;3.63;;;;;;;15.50;96.44;102273.94;5053830;28;20048;-76
2022/06/28 06:31:32;;;;;;;16.42;3.60;;;;;;;15.57;96.18;102267.06;5053351;28;20037;-76
2022/06/28 06:33:57;;;;;;;17.63;3.33;;;;;;;15.66;94.29;102265.38;5052216;28;20098;-76
2022/06/28 06:36:23;;;;;;;19.52;3.17;;;;;;;15.81;96.55;102269.38;5052826;28;20056;-77
2022/06/28 06:38:49;;;;;;;25.02;3.65;;;;;;;15.91;94.25;102265.84;5053253;28;20048;-76
2022/06/28 06:41:14;;;;;;;14.98;2.92;;;;;;;15.97;91.32;102257.25;5033205;28;20082;-76
2022/06/28 06:43:40;;;;;;;16.17;3.55;;;;;;;16.03;91.16;102262.03;5033431;28;20160;-76
2022/06/28 06:46:05;;;;;;;16.10;3.47;;;;;;;16.15;91.11;102266.31;5033499;28;20442;-76
2022/06/28 06:48:30;;;;;;;14.52;3.80;;;;;;;16.27;91.98;102267.03;5033198;28;20041;-76
2022/06/28 06:50:56;;;;;;;17.33;2.92;;;;;;;16.38;89.70;102264.16;5032900;28;20427;-76
2022/06/28 06:53:21;;;;;;;14.77;2.75;;;;;;;16.59;90.11;102265.00;5033379;28;20099;-76
2022/06/28 06:55:47;;;;;;;19.92;3.50;;;;;;;16.78;88.07;102266.78;5032928;28;20496;-76
2022/06/28 06:58:13;;;;;;;12.88;2.58;;;;;;;16.95;86.51;102268.75;5033362;28;20033;-76
2022/06/28 07:00:39;;;;;;;12.50;3.35;;;;;;;17.19;86.19;102257.47;5033336;28;20430;-76
2022/06/28 07:03:05;;;;;;;20.35;3.38;;;;;;;17.32;84.88;102265.22;5032937;28;20455;-76
2022/06/28 07:05:30;;;;;;;15.13;3.42;;;;;;;17.53;83.43;102264.97;5032884;28;20111;-77
2022/06/28 07:07:56;;;;;;;18.55;3.90;;;;;;;17.67;83.15;102265.44;5033095;28;20041;-76
2022/06/28 07:10:21;;;;;;;23.83;3.28;;;;;;;17.79;80.86;102256.16;5033288;28;20029;-77
2022/06/28 07:12:47;;;;;;;12.98;2.95;;;;;;;18.10;81.17;102255.81;5033038;28;20430;-77
2022/06/28 07:15:13;;;;;;;14.18;3.28;;;;;;;18.53;77.09;102256.84;5033154;28;20037;-75
2022/06/28 07:17:38;;;;;;;12.77;3.15;;;;;;;18.74;76.58;102253.78;5032709;28;20022;-76
2022/06/28 07:20:04;;;;;;;15.10;3.30;;;;;;;18.93;74.64;102268.94;5032537;28;20033;-76
2022/06/28 07:22:30;;;;;;;14.70;3.15;;;;;;;18.95;71.07;102268.78;5032901;28;20026;-76
2022/06/28 07:24:56;;;;;;;22.90;3.30;;;;;;;18.96;72.29;102267.75;5031328;28;20437;-76
2022/06/28 07:27:22;;;;;;;11.55;3.30;;;;;;;19.11;73.50;102270.69;5032863;28;20064;-76
2022/06/28 07:29:48;;;;;;;11.77;2.55;;;;;;;19.32;72.07;102275.72;5032889;28;20034;-76
2022/06/28 07:32:13;;;;;;;9.80;2.72;;;;;;;19.40;69.26;102272.19;5033471;28;20045;-76
2022/06/28 07:34:39;;;;;;;14.50;2.92;;;;;;;19.11;68.48;102273.41;5032981;28;20110;-76
2022/06/28 07:37:04;;;;;;;19.92;3.58;;;;;;;18.61;69.47;102264.16;5032802;28;20112;-76
2022/06/28 07:39:30;;;;;;;9.00;2.35;;;;;;;18.44;72.42;102273.97;5036737;28;20056;-76
2022/06/28 07:41:55;;;;;;;17.70;3.25;;;;;;;18.32;71.08;102279.59;5053407;28;20043;-75
2022/06/28 07:44:20;;;;;;;14.55;2.88;;;;;;;18.02;71.43;102272.75;5052498;28;20075;-77
2022/06/28 07:46:46;;;;;;;14.95;3.28;;;;;;;17.80;74.13;102282.09;5052260;28;20033;-75
2022/06/28 07:49:11;;;;;;;16.52;3.10;;;;;;;17.85;77.17;102278.94;5050811;28;20036;-76
2022/06/28 07:54:21;;;;;;;13.13;2.85;;;;;;;18.48;72.02;102269.94;5051372;28;20052;-78
2022/06/28 07:56:46;;;;;;;17.55;3.28;;;;;;;18.57;69.69;102265.44;5052393;28;20385;-75
2022/06/28 07:59:11;;;;;;;12.57;2.90;;;;;;;18.75;69.12;102273.50;5052853;28;20507;-76
2022/06/28 08:01:37;;;;;;;14.68;3.45;;;;;;;18.85;70.77;102268.84;5052266;28;20117;-75
2022/06/28 08:04:02;;;;;;;11.55;2.55;;;;;;;19.02;69.77;102275.22;5052001;28;20060;-76
2022/06/28 08:06:27;;;;;;;14.50;2.80;;;;;;;19.19;67.88;102281.53;5052053;28;20029;-76
2022/06/28 08:08:53;;;;;;;15.65;2.83;;;;;;;19.32;68.35;102271.16;5051073;28;20033;-76
2022/06/28 08:11:18;;;;;;;10.43;2.30;;;;;;;19.55;64.21;102263.28;5052175;28;20029;-75
2022/06/28 08:13:47;;;;;;;13.57;3.13;;;;;;;19.72;61.61;102271.44;5052293;28;20040;-75
2022/06/28 08:16:13;;;;;;;10.73;2.85;;;;;;;19.70;63.84;102268.91;5052198;28;20051;-76
2022/06/28 08:18:38;;;;;;;10.30;2.42;;;;;;;19.83;64.69;102281.13;5052253;28;20434;-77
2022/06/28 08:21:05;;;;;;;11.15;2.40;;;;;;;19.83;62.46;102263.06;5050263;28;20029;-76
2022/06/28 08:23:30;;;;;;;9.85;2.65;;;;;;;19.89;62.44;102259.69;5051511;28;20539;-77
2022/06/28 08:25:56;;;;;;;14.63;2.85;;;;;;;20.06;61.28;102259.72;5051587;28;20097;-76
2022/06/28 08:28:21;;;;;;;12.93;2.58;;;;;;;20.18;62.36;102265.63;5052025;28;20041;-76
2022/06/28 08:30:47;;;;;;;12.23;2.50;;;;;;;20.21;61.11;102263.47;5051766;28;20445;-76
2022/06/28 08:33:13;;;;;;;7.93;2.05;;;;;;;20.42;55.98;102264.78;5051698;28;20037;-76
2022/06/28 08:35:38;;;;;;;9.13;2.55;;;;;;;20.42;55.76;102271.06;5051543;28;20113;-76
2022/06/28 08:38:05;;;;;;;10.68;2.83;;;;;;;20.51;55.25;102257.53;5050118;28;20047;-76
2022/06/28 08:40:32;;;;;;;14.05;2.45;;;;;;;20.61;57.05;102255.47;5052107;28;20076;-77
2022/06/28 08:42:59;;;;;;;9.18;2.55;;;;;;;20.70;57.88;102254.47;5050200;28;20033;-76
2022/06/28 08:45:25;;;;;;;13.65;2.55;;;;;;;21.15;56.85;102260.28;5051609;28;20101;-76
2022/06/28 08:47:52;;;;;;;8.30;2.70;;;;;;;21.16;53.36;102258.44;5051596;28;20489;-76
2022/06/28 08:50:30;;;;;;;13.68;2.53;;;;;;;20.78;56.00;102250.94;5052080;28;20021;-76
2022/06/28 08:52:58;;;;;;;7.60;2.35;;;;;;;21.33;52.14;102238.38;5052447;28;20377;-76
2022/06/28 08:55:24;;;;;;;10.60;2.58;;;;;;;22.18;51.31;102232.09;5051773;28;20059;-76
2022/06/28 08:57:50;;;;;;;15.45;3.17;;;;;;;23.24;49.94;102232.03;5051545;28;20037;-76
2022/06/28 09:00:15;;;;;;;9.95;2.65;;;;;;;23.74;46.28;102234.88;5052179;28;20036;-75
2022/06/28 09:02:41;;;;;;;8.15;2.17;;;;;;;24.11;43.83;102232.97;5054811;28;20127;-77
2022/06/28 09:05:06;;;;;;;9.75;2.13;;;;;;;23.83;43.97;102237.50;5053451;28;20036;-76
2022/06/28 09:07:32;;;;;;;13.55;2.40;;;;;;;23.93;44.25;102236.16;5055625;28;20033;-76
2022/06/28 09:09:57;;;;;;;11.25;2.13;;;;;;;23.67;44.93;102239.41;5055140;28;20029;-76
2022/06/28 09:12:23;;;;;;;11.45;2.40;;;;;;;22.71;46.43;102236.72;5054925;28;20025;-77
2022/06/28 09:14:48;;;;;;;8.88;1.90;;;;;;;23.57;46.56;102237.03;5055108;28;20469;-76
2022/06/28 09:17:22;;;;;;;5.28;1.92;;;;;;;24.85;41.08;102232.69;5054660;28;20047;-74
2022/06/28 09:19:52;;;;;;;10.93;2.60;;;;;;;25.88;41.33;102232.66;5054726;28;20067;-77
2022/06/28 09:22:38;;;;;;;8.63;2.15;;;;;;;26.88;37.16;102226.34;5054899;28;20061;-76
2022/06/28 09:25:10;;;;;;;14.00;2.70;;;;;;;27.23;37.69;102229.56;5054807;28;20461;-76
2022/06/28 09:27:38;;;;;;;12.60;2.10;;;;;;;26.97;33.75;102226.94;5054807;28;20047;-77
2022/06/28 09:30:07;;;;;;;10.60;2.28;;;;;;;26.18;37.56;102224.09;5054772;28;20485;-76
2022/06/28 09:32:34;;;;;;;9.27;2.00;;;;;;;26.40;35.42;102222.00;5054640;28;20053;-76
2022/06/28 09:35:11;;;;;;;10.95;2.28;;;;;;;26.84;35.58;102223.22;5055220;28;20041;-76
2022/06/28 09:37:56;;;;;;;10.60;2.42;;;;;;;27.34;35.49;102217.13;5054790;28;20078;-75
2022/06/28 09:40:32;;;;;;;8.68;1.73;;;;;;;28.15;31.74;102221.00;5055089;28;20048;-74
2022/06/28 09:43:10;;;;;;;8.75;2.67;;;;;;;28.38;32.79;102227.78;5054829;28;20060;-75
2022/06/28 09:45:38;;;;;;;7.45;2.00;;;;;;;28.72;32.13;102227.44;5054587;28;20028;-77
2022/06/28 09:48:04;;;;;;;9.40;2.47;;;;;;;28.89;31.39;102208.50;5054543;28;20028;-75
2022/06/28 09:50:31;;;;;;;12.32;2.30;;;;;;;28.97;33.00;102220.00;5053300;28;20036;-75
2022/06/28 09:52:59;;;;;;;13.07;2.15;;;;;;;28.55;31.83;102224.44;5053065;28;20032;-75
2022/06/28 09:55:28;;;;;;;8.13;2.35;;;;;;;28.77;31.36;102208.47;5054495;28;20064;-76
2022/06/28 09:57:54;;;;;;;6.22;1.90;;;;;;;28.88;31.78;102207.66;5054052;28;20384;-76
2022/06/28 10:00:21;;;;;;;9.95;1.90;;;;;;;29.12;28.62;102219.59;5054336;28;20037;-75
2022/06/28 10:02:47;;;;;;;11.65;2.45;;;;;;;29.11;31.09;102217.09;5054261;28;20039;-76
2022/06/28 10:05:13;;;;;;;7.70;1.90;;;;;;;29.09;31.26;102211.00;5054542;28;20037;-76
2022/06/28 10:07:40;;;;;;;10.63;2.35;;;;;;;28.63;28.72;102205.00;5054307;28;20101;-76
2022/06/28 10:10:08;;;;;;;11.23;2.30;;;;;;;28.82;31.27;102205.84;5053968;28;20037;-75
2022/06/28 10:15:24;;;;;;;7.30;2.00;;;;;;;28.46;32.53;102207.47;5054698;28;20052;-75
2022/06/28 10:17:56;;;;;;;13.88;2.15;;;;;;;28.72;32.22;102208.28;5053898;28;20033;-76
2022/06/28 10:20:33;;;;;;;5.63;1.42;;;;;;;29.08;28.68;102206.59;5053109;28;20041;-75
2022/06/28 10:23:20;;;;;;;6.90;1.98;;;;;;;28.29;29.96;102207.22;5053754;28;20025;-75
2022/06/28 10:26:05;;;;;;;11.48;2.17;;;;;;;27.87;29.29;102201.44;5054008;28;20053;-75
2022/06/28 10:28:41;;;;;;;5.65;1.75;;;;;;;28.24;28.63;102196.94;5053697;28;20025;-74
2022/06/28 10:31:30;;;;;;;5.25;1.52;;;;;;;27.77;29.58;102194.59;5053779;28;20036;-75
2022/06/28 10:34:02;;;;;;;9.98;2.22;;;;;;;28.33;32.74;102189.28;5048390;28;20037;-76
2022/06/28 10:36:33;;;;;;;6.47;1.70;;;;;;;28.18;30.67;102183.34;5053556;28;20531;-74
2022/06/28 10:39:07;;;;;;;6.00;1.60;;;;;;;28.63;28.38;102177.63;5053829;28;20032;-74
2022/06/28 10:41:50;;;;;;;5.15;1.50;;;;;;;28.76;27.73;102182.13;5053798;28;20029;-75
2022/06/28 10:44:26;;;;;;;6.97;1.77;;;;;;;28.68;28.46;102177.81;5053755;28;20025;-75
2022/06/28 10:47:00;;;;;;;6.30;1.77;;;;;;;28.81;26.92;102169.44;5053643;28;20062;-76
2022/06/28 10:49:26;;;;;;;5.35;1.55;;;;;;;28.13;26.96;102176.63;5053406;28;20044;-74
2022/06/28 10:52:09;;;;;;;5.75;1.60;;;;;;;28.34;27.95;102177.28;5053646;28;20036;-75
2022/06/28 10:54:35;;;;;;;6.40;1.60;;;;;;;28.14;29.10;102180.19;5053285;28;20036;-75
2022/06/28 10:57:00;;;;;;;3.55;1.30;;;;;;;28.23;30.20;102175.28;5053820;28;20033;-77
2022/06/28 10:59:37;;;;;;;8.43;2.00;;;;;;;28.75;26.76;102184.00;5053278;28;20126;-75
2022/06/28 11:02:03;;;;;;;4.32;1.50;;;;;;;28.88;26.31;102176.72;5053164;28;20029;-75
2022/06/28 11:04:30;;;;;;;6.85;1.67;;;;;;;28.56;27.16;102168.63;5053462;28;20035;-75
2022/06/28 11:06:59;;;;;;;4.93;1.30;;;;;;;28.57;25.13;102167.56;5053225;28;20057;-75
2022/06/28 11:09:46;;;;;;;6.65;1.30;;;;;;;28.08;27.25;102162.81;5053447;28;20036;-74
2022/06/28 11:12:28;;;;;;;6.32;1.60;;;;;;;28.13;29.55;102164.88;5052453;28;20044;-74
2022/06/28 11:14:54;;;;;;;3.47;1.42;;;;;;;28.60;26.24;102154.28;5053369;28;20045;-74
2022/06/28 11:17:22;;;;;;;6.38;1.65;;;;;;;28.91;29.63;102154.34;5053178;28;20495;-75
2022/06/28 11:19:53;;;;;;;6.00;1.83;;;;;;;29.16;25.94;102146.00;5052807;28;20024;-74
2022/06/28 11:22:31;;;;;;;3.45;1.25;;;;;;;28.84;28.63;102147.06;5053285;28;20048;-75
2022/06/28 11:24:59;;;;;;;4.35;1.45;;;;;;;28.75;27.55;102145.69;5053144;28;20051;-75
2022/06/28 11:27:26;;;;;;;4.53;1.30;;;;;;;29.07;27.75;102144.66;5052609;28;20093;-75